Time;durP1;ratioP1;P1;durP2;ratioP2;P2;SDS_P1;SDS_P2;PMS_P1;PMS_P2;Temp;Humidity;BMP_temperature;BMP_pressure;BME280_temperature;BME280_humidity;BME280_pressure;Samples;Min_cycle;Max_cycle;Signal;HPM_P1;HPM_P2
2023/07/28 00:00:43;;;;;;;6.30;5.70;;;;;;;17.28;100.00;100484.28;5131734;28;20280;-37
2023/07/28 00:03:09;;;;;;;6.00;5.60;;;;;;;17.23;100.00;100475.03;5131096;27;20284;-37
2023/07/28 00:05:35;;;;;;;;;;;;;;;17.34;100.00;100488.59;5132149;27;20015;-37
2023/07/28 00:08:00;;;;;;;5.65;5.15;;;;;;;17.31;100.00;100489.97;5131404;27;19971;-37
2023/07/28 00:10:26;;;;;;;;;;;;;;;17.36;100.00;100484.47;5123002;28;20102;-37
2023/07/28 00:12:51;;;;;;;6.18;5.68;;;;;;;17.34;100.00;100480.41;5117855;28;19908;-37
2023/07/28 00:15:16;;;;;;;;;;;;;;;17.38;100.00;100476.81;5117341;28;20027;-37
2023/07/28 00:17:42;;;;;;;5.90;5.40;;;;;;;17.34;100.00;100478.50;5116619;28;20267;-37
2023/07/28 00:20:08;;;;;;;;;;;;;;;17.39;100.00;100475.72;5117296;28;20292;-37
2023/07/28 00:22:33;;;;;;;5.82;5.43;;;;;;;17.32;100.00;100468.94;5117391;27;20002;-37
2023/07/28 00:24:58;;;;;;;;;;;;;;;17.37;100.00;100466.16;5117565;28;20023;-37
2023/07/28 00:27:24;;;;;;;5.90;5.50;;;;;;;17.32;100.00;100471.66;5117604;28;19907;-37
2023/07/28 00:29:49;;;;;;;;;;;;;;;17.36;100.00;100470.81;5117128;28;20283;-37
2023/07/28 00:32:14;;;;;;;5.63;5.20;;;;;;;17.32;100.00;100477.13;5116660;28;19997;-37
2023/07/28 00:34:40;;;;;;;;;;;;;;;17.34;100.00;100474.94;5117561;27;20272;-37
2023/07/28 00:37:05;;;;;;;5.90;5.40;;;;;;;17.30;100.00;100465.69;5117112;28;19933;-37
2023/07/28 00:39:30;;;;;;;;;;;;;;;17.34;100.00;100466.75;5117147;28;20361;-37
2023/07/28 00:41:56;;;;;;;5.80;5.40;;;;;;;17.31;100.00;100468.13;5117285;28;19946;-37
2023/07/28 00:44:21;;;;;;;;;;;;;;;17.33;100.00;100468.66;5116806;28;20289;-37
2023/07/28 00:46:47;;;;;;;5.70;5.30;;;;;;;17.27;100.00;100475.25;5116389;28;20358;-37
2023/07/28 00:49:12;;;;;;;;;;;;;;;17.32;100.00;100475.22;5116737;27;20737;-37
2023/07/28 00:51:38;;;;;;;5.93;5.53;;;;;;;17.27;100.00;100469.78;5117139;28;19907;-37
2023/07/28 00:54:05;;;;;;;;;;;;;;;17.32;100.00;100477.13;5116446;28;20043;-37
2023/07/28 00:56:31;;;;;;;6.22;5.72;;;;;;;17.26;100.00;100470.88;5117059;28;19912;-37
2023/07/28 00:58:56;;;;;;;;;;;;;;;17.33;100.00;100470.59;5116534;28;20348;-37
2023/07/28 01:01:22;;;;;;;5.78;5.28;;;;;;;17.30;100.00;100468.41;5116623;28;19919;-37
2023/07/28 01:03:48;;;;;;;6.18;5.68;;;;;;;17.29;100.00;100473.06;5116007;28;20074;-37
2023/07/28 01:06:22;;;;;;;;;;;;;;;17.36;100.00;100472.72;5116229;28;20019;-37
2023/07/28 01:09:06;;;;;;;5.85;5.45;;;;;;;17.28;100.00;100473.38;5115675;28;20065;-37
2023/07/28 01:11:32;;;;;;;5.88;5.38;;;;;;;17.26;100.00;100473.63;5116760;28;20019;-37
2023/07/28 01:13:57;;;;;;;6.15;5.65;;;;;;;17.32;100.00;100482.59;5115834;27;20024;-37
2023/07/28 01:16:23;;;;;;;;;;;;;;;17.35;100.00;100484.78;5117148;28;20016;-37
2023/07/28 01:18:49;;;;;;;6.20;5.70;;;;;;;17.33;100.00;100492.44;5115942;28;19915;-37
2023/07/28 01:21:19;;;;;;;;;;;;;;;17.38;100.00;100492.41;5116396;28;20541;-37
2023/07/28 01:24:09;;;;;;;6.07;5.57;;;;;;;17.33;100.00;100482.34;5115435;28;20068;-37
2023/07/28 01:26:36;;;;;;;6.80;6.30;;;;;;;17.28;100.00;100465.16;5115650;28;20457;-37
2023/07/28 01:29:03;;;;;;;8.60;6.10;;;;;;;17.33;100.00;100485.06;5115516;28;20019;-37
2023/07/28 01:31:29;;;;;;;7.10;6.50;;;;;;;17.32;100.00;100485.31;5116335;28;20434;-37
2023/07/28 01:33:54;;;;;;;;;;;;;;;17.39;100.00;100483.09;5116132;28;20055;-37
2023/07/28 01:36:19;;;;;;;6.97;6.27;;;;;;;17.31;100.00;100475.50;5115678;28;20370;-37
2023/07/28 01:38:44;;;;;;;;;;;;;;;17.40;100.00;100495.66;5115949;28;20281;-37
2023/07/28 01:41:10;;;;;;;6.57;5.97;;;;;;;17.35;100.00;100482.84;5115581;28;19908;-37
2023/07/28 01:43:35;;;;;;;;;;;;;;;17.40;100.00;100496.47;5115660;28;20314;-37
2023/07/28 01:46:00;;;;;;;6.67;6.17;;;;;;;17.35;100.00;100482.84;5115232;28;19908;-37
2023/07/28 01:48:26;;;;;;;;;;;;;;;17.39;100.00;100494.03;5116095;28;20268;-37
2023/07/28 01:50:52;;;;;;;6.88;6.28;;;;;;;17.35;100.00;100490.25;5115204;28;20313;-37
2023/07/28 01:53:17;;;;;;;;;;;;;;;17.40;100.00;100493.75;5116027;28;20031;-37
2023/07/28 01:55:42;;;;;;;7.15;6.55;;;;;;;17.34;100.00;100492.16;5115310;28;19907;-37
2023/07/28 01:58:07;;;;;;;;;;;;;;;17.39;100.00;100494.03;5115894;28;20031;-37
2023/07/28 02:00:33;;;;;;;6.13;5.63;;;;;;;17.36;100.00;100491.88;5114882;28;20351;-37
2023/07/28 02:03:01;;;;;;;;;;;;;;;17.40;100.00;100487.47;5116005;28;20728;-37
2023/07/28 02:05:27;;;;;;;6.75;6.18;;;;;;;17.30;100.00;100479.34;5114798;28;19912;-36
2023/07/28 02:07:52;;;;;;;;;;;;;;;17.41;100.00;100481.69;5115850;28;20455;-37
2023/07/28 02:10:18;;;;;;;6.88;6.32;;;;;;;17.38;100.00;100478.75;5114777;28;20377;-37
2023/07/28 02:12:43;;;;;;;;;;;;;;;17.40;100.00;100485.53;5115143;28;20105;-37
2023/07/28 02:15:08;;;;;;;9.47;6.57;;;;;;;17.35;100.00;100484.78;5114621;28;19915;-37
2023/07/28 02:17:34;;;;;;;;;;;;;;;17.41;100.00;100483.63;5115126;28;20256;-37
2023/07/28 02:19:59;;;;;;;7.60;6.72;;;;;;;17.35;100.00;100482.03;5115272;28;19933;-37
2023/07/28 02:22:24;;;;;;;;;;;;;;;17.41;100.00;100486.34;5114974;28;20027;-36
2023/07/28 02:24:50;;;;;;;7.20;6.50;;;;;;;17.35;100.00;100474.66;5114520;28;19957;-37
2023/07/28 02:27:15;;;;;;;;;;;;;;;17.42;100.00;100482.50;5113713;28;20273;-37
2023/07/28 02:29:41;;;;;;;7.50;6.80;;;;;;;17.36;100.00;100492.69;5114719;28;19911;-37
2023/07/28 02:32:07;;;;;;;7.22;6.68;;;;;;;17.36;100.00;100484.47;5114103;28;20725;-37
2023/07/28 02:34:32;;;;;;;;;;;;;;;17.43;100.00;100486.91;5114578;28;20024;-37
2023/07/28 02:36:58;;;;;;;8.77;7.27;;;;;;;17.27;100.00;100468.97;5114334;28;20371;-37
2023/07/28 02:39:24;;;;;;;;;;;;;;;17.42;100.00;100488.81;5114693;28;20335;-37
2023/07/28 02:41:50;;;;;;;7.65;6.95;;;;;;;17.31;100.00;100479.06;5114601;28;19911;-37
2023/07/28 02:44:15;;;;;;;;;;;;;;;17.42;100.00;100488.81;5114425;28;20531;-37
2023/07/28 02:46:40;;;;;;;9.20;7.93;;;;;;;17.38;100.00;100489.69;5114510;28;20255;-37
2023/07/28 02:49:05;;;;;;;;;;;;;;;17.43;100.00;100489.63;5114668;28;20728;-37
2023/07/28 02:51:31;;;;;;;8.27;7.47;;;;;;;17.38;100.00;100500.63;5114483;28;20313;-37
2023/07/28 02:53:56;;;;;;;;;;;;;;;17.41;100.00;100500.84;5114510;28;20019;-37
2023/07/28 02:56:21;;;;;;;8.00;7.20;;;;;;;17.34;100.00;100494.88;5114075;28;19952;-37
2023/07/28 02:58:48;;;;;;;;;;;;;;;17.41;100.00;100508.22;5114417;28;20321;-37
2023/07/28 03:01:13;;;;;;;11.20;8.18;;;;;;;17.29;100.00;100492.19;5114616;28;19995;-36
2023/07/28 03:03:38;;;;;;;;;;;;;;;17.40;100.00;100507.41;5114419;28;20074;-36
2023/07/28 03:06:04;;;;;;;8.83;7.93;;;;;;;17.33;100.00;100508.84;5114280;28;19904;-36
2023/07/28 03:08:29;;;;;;;;;;;;;;;17.39;100.00;100513.16;5114318;28;20311;-37
2023/07/28 03:10:58;;;;;;;9.20;8.17;;;;;;;17.22;100.00;100492.50;5113963;28;20060;-37
2023/07/28 03:13:24;;;;;;;11.20;9.32;;;;;;;17.33;100.00;100511.59;5114234;28;20261;-37
2023/07/28 03:15:49;;;;;;;;;;;;;;;17.37;100.00;100510.72;5114912;28;20020;-37
2023/07/28 03:18:14;;;;;;;10.13;8.57;;;;;;;17.34;100.00;100508.56;5113897;28;20267;-37
2023/07/28 03:20:39;;;;;;;;;;;;;;;17.38;100.00;100504.16;5114267;28;20338;-37
2023/07/28 03:23:05;;;;;;;10.75;9.27;;;;;;;17.29;100.00;100505.03;5114465;28;19973;-37
2023/07/28 03:25:30;;;;;;;;;;;;;;;17.38;100.00;100517.00;5114284;28;20468;-37
2023/07/28 03:27:55;;;;;;;11.43;9.25;;;;;;;17.33;100.00;100508.84;5114073;28;19904;-37
2023/07/28 03:30:21;;;;;;;;;;;;;;;17.38;100.00;100514.28;5114751;28;20058;-37
2023/07/28 03:32:46;;;;;;;13.43;9.33;;;;;;;17.34;100.00;100518.69;5114358;28;19911;-37
2023/07/28 03:35:11;;;;;;;;;;;;;;;17.38;100.00;100520.56;5114505;28;20402;-37
2023/07/28 03:37:37;;;;;;;12.77;9.98;;;;;;;17.20;100.00;100494.72;5114329;28;20347;-37
2023/07/28 03:40:02;;;;;;;12.20;10.30;;;;;;;17.37;100.00;100518.09;5113912;28;20026;-37
2023/07/28 03:42:27;;;;;;;;;;;;;;;17.41;100.00;100519.97;5114463;28;20456;-36
2023/07/28 03:44:53;;;;;;;11.02;9.73;;;;;;;17.35;100.00;100520.28;5114195;28;19903;-36
2023/07/28 03:47:19;;;;;;;;;;;;;;;17.40;100.00;100517.53;5118271;28;20115;-36
2023/07/28 03:49:44;;;;;;;11.18;9.77;;;;;;;17.34;100.00;100522.22;5118000;28;20389;-37
2023/07/28 03:52:09;;;;;;;;;;;;;;;17.40;100.00;100528.47;5117977;28;20019;-37
2023/07/28 03:54:34;;;;;;;14.27;11.07;;;;;;;17.35;100.00;100536.69;5117329;28;19953;-37
2023/07/28 03:57:00;;;;;;;;;;;;;;;17.39;100.00;100533.13;5118126;28;20279;-37
2023/07/28 03:59:25;;;;;;;13.10;11.20;;;;;;;17.35;100.00;100542.16;5117246;28;20010;-37
2023/07/28 04:01:52;;;;;;;;;;;;;;;17.38;100.00;100542.41;5117237;27;20665;-37
2023/07/28 04:04:17;;;;;;;13.50;11.25;;;;;;;17.24;100.00;100525.03;5116881;28;20417;-37
2023/07/28 04:06:44;;;;;;;;;;;;;;;17.36;100.00;100541.06;5118217;28;20039;-37
2023/07/28 04:09:12;;;;;;;15.15;11.85;;;;;;;17.27;100.00;100529.09;5117183;28;19907;-37
2023/07/28 04:11:38;;;;;;;17.38;12.57;;;;;;;17.27;100.00;100527.16;5117150;28;20024;-37
2023/07/28 04:14:04;;;;;;;;;;;;;;;17.38;100.00;100538.88;5117955;28;20094;-37
2023/07/28 04:16:29;;;;;;;16.17;12.25;;;;;;;17.33;100.00;100537.00;5116964;28;19986;-37
2023/07/28 04:18:54;;;;;;;;;;;;;;;17.39;100.00;100543.22;5117533;27;20063;-37
2023/07/28 04:21:20;;;;;;;13.87;11.50;;;;;;;17.33;100.00;100539.72;5117177;28;20006;-37
2023/07/28 04:23:45;;;;;;;;;;;;;;;17.37;100.00;100545.41;5117187;28;20352;-36
2023/07/28 04:26:11;;;;;;;15.90;11.80;;;;;;;17.32;100.00;100543.53;5116867;28;19907;-36
2023/07/28 04:28:36;;;;;;;;;;;;;;;17.38;100.00;100538.88;5117176;28;20023;-37
2023/07/28 04:31:01;;;;;;;18.33;11.67;;;;;;;17.28;100.00;100528.81;5117342;28;19930;-37
2023/07/28 04:33:26;;;;;;;;;;;;;;;17.38;100.00;100533.41;5115762;28;20292;-37
2023/07/28 04:35:52;;;;;;;16.30;11.77;;;;;;;17.25;100.00;100519.25;5116898;28;19907;-37
2023/07/28 04:38:18;;;;;;;;;;;;;;;17.37;100.00;100542.69;5117008;28;20373;-37
2023/07/28 04:40:44;;;;;;;16.65;12.52;;;;;;;17.31;100.00;100541.09;5116536;28;19907;-37
2023/07/28 04:43:09;;;;;;;;;;;;;;;17.38;100.00;100538.88;5117218;28;20078;-37
2023/07/28 04:45:34;;;;;;;18.70;12.90;;;;;;;17.33;100.00;100544.38;5116513;28;20367;-37
2023/07/28 04:48:00;;;;;;;;;;;;;;;17.38;100.00;100544.34;5116891;28;20375;-37
2023/07/28 04:50:25;;;;;;;14.53;11.90;;;;;;;17.34;100.00;100538.63;5116066;28;19911;-37
2023/07/28 04:52:50;;;;;;;;;;;;;;;17.40;100.00;100542.13;5117033;28;20245;-37
2023/07/28 04:55:16;;;;;;;17.23;11.60;;;;;;;17.36;100.00;100539.13;5116176;28;19977;-37
2023/07/28 04:57:41;;;;;;;;;;;;;;;17.44;100.00;100554.13;5116497;28;20020;-37
2023/07/28 05:00:08;;;;;;;21.87;12.73;;;;;;;17.37;100.00;100545.41;5115761;28;19907;-37
2023/07/28 05:02:33;;;;;;;15.57;12.80;;;;;;;17.35;100.00;100545.72;5116931;28;20284;-37
2023/07/28 05:04:59;;;;;;;;;;;;;;;17.46;100.00;100551.91;5116999;28;20440;-37
2023/07/28 05:07:24;;;;;;;14.00;11.93;;;;;;;17.42;100.00;100548.13;5116804;28;19914;-37
2023/07/28 05:09:49;;;;;;;15.77;11.98;;;;;;;17.43;100.00;100547.84;5115913;28;20027;-37
2023/07/28 05:12:15;;;;;;;;;;;;;;;17.48;100.00;100557.94;5116343;28;20063;-37
2023/07/28 05:14:40;;;;;;;14.57;11.07;;;;;;;17.39;100.00;100543.22;5115541;28;19908;-37
2023/07/28 05:17:05;;;;;;;;;;;;;;;17.53;100.00;100554.34;5116460;28;20261;-37
2023/07/28 05:19:31;;;;;;;14.67;12.33;;;;;;;17.44;100.00;100556.88;5115531;28;20448;-37
2023/07/28 05:21:57;;;;;;;15.30;11.60;;;;;;;17.49;100.00;100565.84;5116528;28;20589;-37
2023/07/28 05:24:22;;;;;;;;;;;;;;;17.57;100.00;100569.06;5116301;27;20028;-37
2023/07/28 05:26:47;;;;;;;13.77;11.73;;;;;;;17.54;100.00;100573.19;5115858;28;19903;-37
2023/07/28 05:29:13;;;;;;;;;;;;;;;17.61;100.00;100575.59;5116232;27;20352;-37
2023/07/28 05:31:38;;;;;;;13.70;11.30;;;;;;;17.59;100.00;100577.81;5115323;28;19903;-37
2023/07/28 05:34:03;;;;;;;;;;;;;;;17.65;100.00;100577.47;5115433;27;20057;-37
2023/07/28 05:36:29;;;;;;;15.18;12.05;;;;;;;17.56;100.00;100576.44;5115063;28;19903;-37
2023/07/28 05:38:56;;;;;;;;;;;;;;;17.68;100.00;100584.31;5115777;28;20085;-37
2023/07/28 05:41:23;;;;;;;14.63;12.63;;;;;;;17.64;100.00;100588.72;5114673;28;20002;-37
2023/07/28 05:43:49;;;;;;;16.80;11.85;;;;;;;17.63;100.00;100587.09;5114848;28;20032;-37
2023/07/28 05:46:14;;;;;;;;;;;;;;;17.70;100.00;100591.13;5114983;28;20032;-37
2023/07/28 05:48:39;;;;;;;17.50;13.60;;;;;;;17.67;100.00;100588.97;5114801;28;19922;-37
2023/07/28 05:51:04;;;;;;;;;;;;;;;17.73;100.00;100592.50;5114968;28;20249;-37
2023/07/28 05:53:30;;;;;;;17.10;12.05;;;;;;;17.61;100.00;100581.06;5114923;28;19907;-37
2023/07/28 05:55:55;;;;;;;;;;;;;;;17.72;100.00;100594.41;5115416;28;20396;-37
2023/07/28 05:58:20;;;;;;;18.02;12.45;;;;;;;17.59;100.00;100577.81;5114250;28;19908;-37
2023/07/28 06:00:46;;;;;;;;;;;;;;;17.77;100.00;100592.78;5115042;28;20023;-37
2023/07/28 06:03:14;;;;;;;15.27;12.93;;;;;;;17.73;100.00;100598.78;5114560;28;20320;-37
2023/07/28 06:05:43;;;;;;;15.52;13.20;;;;;;;17.72;100.00;100599.06;5114500;27;20246;-37
2023/07/28 06:08:08;;;;;;;16.10;11.98;;;;;;;17.75;100.00;100602.06;5114525;28;20448;-37
2023/07/28 06:10:34;;;;;;;;;;;;;;;17.83;100.00;100591.63;5114790;28;20106;-37
2023/07/28 06:13:00;;;;;;;18.75;13.25;;;;;;;17.80;100.00;100593.00;5115186;28;20010;-37
2023/07/28 06:15:25;;;;;;;;;;;;;;;17.86;100.00;100600.06;5114395;28;20031;-37
2023/07/28 06:17:50;;;;;;;16.07;12.50;;;;;;;17.85;100.00;100605.81;5114786;28;19908;-37
2023/07/28 06:20:15;;;;;;;;;;;;;;;17.92;100.00;100603.59;5115201;28;20265;-37
2023/07/28 06:22:41;;;;;;;15.52;13.50;;;;;;;17.89;100.00;100606.88;5114490;28;19942;-37
2023/07/28 06:25:07;;;;;;;;;;;;;;;17.97;100.00;100609.00;5115098;28;20398;-37
2023/07/28 06:27:32;;;;;;;15.85;13.75;;;;;;;17.92;100.00;100604.41;5114961;28;20274;-37
2023/07/28 06:29:58;;;;;;;18.02;14.68;;;;;;;17.95;100.00;100605.72;5114086;28;20023;-37
2023/07/28 06:32:23;;;;;;;20.40;15.68;;;;;;;17.95;100.00;100613.94;5114884;28;20024;-36
2023/07/28 06:34:49;;;;;;;;;;;;;;;18.05;100.00;100610.31;5114426;28;20066;-37
2023/07/28 06:37:14;;;;;;;22.15;16.40;;;;;;;17.97;100.00;100615.31;5114480;28;19950;-37
2023/07/28 06:39:40;;;;;;;19.02;16.50;;;;;;;18.00;100.00;100611.16;5114010;28;20024;-37
2023/07/28 06:42:05;;;;;;;23.45;18.33;;;;;;;18.06;100.00;100620.97;5113974;28;20024;-37
2023/07/28 06:44:31;;;;;;;;;;;;;;;18.12;100.00;100622.56;5114330;28;20471;-37
2023/07/28 06:46:56;;;;;;;21.08;18.77;;;;;;;18.09;100.00;100620.41;5114145;28;20247;-37
2023/07/28 06:49:21;;;;;;;;;;;;;;;18.16;100.00;100626.38;5114524;28;20336;-37
2023/07/28 06:51:47;;;;;;;24.42;20.30;;;;;;;18.06;100.00;100615.50;5113789;28;19907;-37
2023/07/28 06:54:12;;;;;;;25.35;22.42;;;;;;;18.14;100.00;100634.03;5113714;28;20049;-37
2023/07/28 06:56:38;;;;;;;25.95;21.55;;;;;;;18.14;100.00;100635.94;5114226;28;20047;-37
2023/07/28 06:59:06;;;;;;;30.52;24.13;;;;;;;18.11;100.00;100626.41;5113579;28;20030;-37
2023/07/28 07:01:32;;;;;;;28.10;23.55;;;;;;;18.18;100.00;100635.09;5114065;28;20386;-37
2023/07/28 07:03:57;;;;;;;;;;;;;;;18.26;100.00;100634.50;5114405;28;20027;-37
2023/07/28 07:06:22;;;;;;;27.08;23.88;;;;;;;18.28;100.00;100629.53;5113980;28;20343;-37
2023/07/28 07:08:48;;;;;;;37.08;26.55;;;;;;;18.25;100.00;100638.34;5113341;28;20107;-37
2023/07/28 07:11:13;;;;;;;30.77;25.20;;;;;;;18.27;100.00;100640.78;5114420;28;20126;-37
2023/07/28 07:13:38;;;;;;;28.42;23.60;;;;;;;18.27;100.00;100647.06;5113225;28;20477;-37
2023/07/28 07:16:06;;;;;;;28.77;24.05;;;;;;;18.23;100.00;100640.53;5114101;28;20050;-37
2023/07/28 07:18:31;;;;;;;30.75;25.30;;;;;;;18.27;100.00;100647.06;5113731;28;20019;-37
2023/07/28 07:21:00;;;;;;;;;;;;;;;18.35;100.00;100655.75;5116825;28;20020;-37
2023/07/28 07:23:26;;;;;;;30.50;24.20;;;;;;;18.29;100.00;100654.97;5117756;28;20018;-37
2023/07/28 07:25:51;;;;;;;;;;;;;;;18.38;100.00;100658.72;5118718;27;20102;-37
2023/07/28 07:28:16;;;;;;;27.73;23.57;;;;;;;18.32;100.00;100648.94;5117843;28;20353;-37
2023/07/28 07:30:42;;;;;;;;;;;;;;;18.41;100.00;100663.66;5119171;28;20257;-37
2023/07/28 07:33:07;;;;;;;;;;;;;;;18.43;100.00;100661.41;5117961;28;19904;-37
2023/07/28 07:35:35;;;;;;;;;;;;;;;18.46;100.00;100662.78;5117996;28;19908;-37
2023/07/28 07:38:00;;;;;;;;;;;;;;;18.47;100.00;100661.66;5118961;28;19910;-37
2023/07/28 07:40:25;;;;;;;;;;;;;;;18.47;100.00;100667.16;5117782;28;20274;-37
2023/07/28 07:42:51;;;;;;;;;;;;;;;18.50;100.00;100666.59;5118148;28;20324;-37
2023/07/28 07:45:17;;;;;;;;;;;;;;;18.52;100.00;100667.09;5118265;28;19908;-37
2023/07/28 07:47:42;;;;;;;;;;;;;;;18.54;100.00;100667.63;5118840;27;20319;-37
2023/07/28 07:50:09;;;;;;;;;;;;;;;18.56;100.00;100673.63;5117596;28;19914;-37
2023/07/28 07:52:34;;;;;;;;;;;;;;;18.56;100.00;100676.38;5117863;28;19915;-37
2023/07/28 07:55:00;;;;;;;;;;;;;;;18.56;100.00;100681.03;5117523;28;19908;-37
2023/07/28 07:57:25;;;;;;;;;;;;;;;18.57;100.00;100677.19;5118110;28;19948;-37
2023/07/28 07:59:50;;;;;;;;;;;;;;;18.56;100.00;100675.56;5117659;28;19907;-37
2023/07/28 08:02:15;;;;;;;;;;;;;;;18.56;100.00;100676.38;5117407;28;19965;-37
2023/07/28 08:04:40;;;;;;;;;;;;;;;18.57;100.00;100682.66;5118139;28;19914;-37
2023/07/28 08:07:06;;;;;;;;;;;;;;;18.56;100.00;100676.38;5117270;28;19914;-37
2023/07/28 08:09:31;;;;;;;;;;;;;;;18.58;100.00;100676.06;5117446;28;19914;-37
2023/07/28 08:11:56;;;;;;;;;;;;;;;18.60;100.00;100682.91;5118073;28;20330;-37
2023/07/28 08:14:22;;;;;;;;;;;;;;;18.60;100.00;100682.91;5117687;28;19908;-37
2023/07/28 08:16:47;;;;;;;;;;;;;;;18.59;100.00;100692.22;5117390;28;19915;-37
2023/07/28 08:19:12;;;;;;;;;;;;;;;18.59;100.00;100684.00;5117064;28;19914;-37
2023/07/28 08:21:37;;;;;;;;;;;;;;;18.59;100.00;100689.47;5117168;28;19907;-37
2023/07/28 08:24:03;;;;;;;;;;;;;;;18.61;100.00;100683.72;5117327;28;20014;-37
2023/07/28 08:26:29;;;;;;;;;;;;;;;18.61;100.00;100695.50;5117309;28;20296;-37
2023/07/28 08:28:54;;;;;;;;;;;;;;;18.63;100.00;100695.19;5117167;28;19907;-37
2023/07/28 08:31:19;;;;;;;;;;;;;;;18.66;100.00;100692.72;5116449;28;19969;-38
2023/07/28 08:33:44;;;;;;;;;;;;;;;18.69;100.00;100696.81;5116832;28;20295;-37
2023/07/28 08:36:10;;;;;;;;;;;;;;;18.70;100.00;100704.75;5117334;28;19911;-37
2023/07/28 08:38:35;;;;;;;;;;;;;;;18.71;100.00;100700.91;5116937;28;19912;-37
2023/07/28 08:41:00;;;;;;;;;;;;;;;18.71;100.00;100706.38;5117822;28;20048;-37
2023/07/28 08:43:25;;;;;;;;;;;;;;;18.72;100.00;100709.94;5117364;28;19908;-37
2023/07/28 08:45:53;;;;;;;;;;;;;;;18.75;100.00;100706.63;5117436;28;20075;-37
2023/07/28 08:48:18;;;;;;;;;;;;;;;18.80;100.00;100711.25;5116764;28;19911;-37
2023/07/28 08:50:43;;;;;;;;;;;;;;;18.83;100.00;100711.47;5117132;28;19915;-37
2023/07/28 08:53:09;;;;;;;;;;;;;;;18.87;100.00;100707.03;5117289;28;19907;-37
2023/07/28 08:55:35;;;;;;;;;;;;;;;18.91;100.00;100712.78;5117559;28;19935;-37
2023/07/28 08:58:15;;;;;;;;;;;;;;;18.94;100.00;100718.50;5116867;28;19907;-37
2023/07/28 09:00:41;;;;;;;;;;;;;;;18.98;100.00;100705.00;5116345;28;19911;-37
2023/07/28 09:03:08;;;;;;;;;;;;;;;19.02;100.00;100708.81;5117107;28;19918;-37
2023/07/28 09:05:33;;;;;;;;;;;;;;;19.06;100.00;100715.34;5116868;28;19998;-37
2023/07/28 09:07:59;;;;;;;;;;;;;;;19.10;100.00;100713.66;5117347;28;20306;-37
2023/07/28 09:10:24;;;;;;;;;;;;;;;19.12;100.00;100711.44;5116376;28;19911;-37
2023/07/28 09:12:50;;;;;;;;;;;;;;;19.16;100.00;100717.16;5116382;28;20359;-37
2023/07/28 09:15:16;;;;;;;;;;;;;;;19.22;100.00;100718.72;5117174;27;20350;-37
2023/07/28 09:17:44;;;;;;;;;;;;;;;19.26;100.00;100715.09;5116098;28;19937;-38
2023/07/28 09:20:19;;;;;;;;;;;;;;;19.30;100.00;100713.41;5116178;28;19914;-37
2023/07/28 09:22:44;;;;;;;;;;;;;;;19.38;100.00;100717.44;5116207;28;19908;-37
2023/07/28 09:25:13;;;;;;;;;;;;;;;19.44;100.00;100723.69;5116430;28;19957;-37
2023/07/28 09:27:38;;;;;;;;;;;;;;;19.55;100.00;100720.50;5115762;27;20007;-37
2023/07/28 09:30:04;;;;;;;;;;;;;;;19.69;100.00;100720.63;5115948;28;19999;-37
2023/07/28 09:32:32;;;;;;;;;;;;;;;19.82;100.00;100719.09;5115626;28;19908;-37
2023/07/28 09:35:11;;;;;;;;;;;;;;;19.94;100.00;100719.47;5115849;28;19952;-38
2023/07/28 09:37:37;;;;;;;;;;;;;;;20.08;100.00;100721.47;5116457;28;19977;-37
2023/07/28 09:40:04;;;;;;;;;;;;;;;20.10;100.00;100725.53;5115727;28;19907;-38
2023/07/28 09:42:30;;;;;;;;;;;;;;;20.14;100.00;100715.59;5114940;28;19953;-37
2023/07/28 09:44:55;;;;;;;;;;;;;;;20.26;100.00;100720.66;5115945;28;19911;-37
2023/07/28 09:47:21;;;;;;;;;;;;;;;20.37;100.00;100713.06;5115672;28;19912;-37
2023/07/28 09:49:48;;;;;;;;;;;;;;;20.44;100.00;100718.97;5115308;28;19914;-37
2023/07/28 09:52:15;;;;;;;;;;;;;;;20.50;100.00;100713.16;5115584;28;19911;-37
2023/07/28 09:54:42;;;;;;;;;;;;;;;20.58;100.00;100714.38;5115545;28;19907;-37
2023/07/28 09:57:11;;;;;;;;;;;;;;;20.69;100.00;100715.00;5115879;28;19908;-37
2023/07/28 09:59:40;;;;;;;;;;;;;;;20.76;100.00;100721.75;5115325;28;19915;-37
2023/07/28 10:02:06;;;;;;;;;;;;;;;20.76;100.00;100713.50;5115332;28;19912;-37
2023/07/28 10:04:32;;;;;;;;;;;;;;;20.77;100.00;100723.38;5115672;28;19960;-37
2023/07/28 10:06:58;;;;;;;;;;;;;;;20.80;100.00;100722.78;5115640;28;19968;-37
2023/07/28 10:09:26;;;;;;;;;;;;;;;20.80;100.00;100722.78;5114931;28;19907;-37
2023/07/28 10:11:55;;;;;;;;;;;;;;;20.87;100.00;100711.38;5115593;28;19911;-37
2023/07/28 10:14:31;;;;;;;;;;;;;;;20.99;100.00;100724.66;5116023;28;19992;-37
2023/07/28 10:16:56;;;;;;;;;;;;;;;21.14;100.00;100721.59;5115146;28;19908;-37
2023/07/28 10:19:24;;;;;;;;;;;;;;;21.30;100.00;100720.19;5115076;28;19960;-37
2023/07/28 10:21:49;;;;;;;;;;;;;;;21.46;100.00;100728.13;5115060;28;20002;-37
2023/07/28 10:24:15;;;;;;;;;;;;;;;21.54;100.00;100725.50;5114714;28;20015;-37
2023/07/28 10:26:44;;;;;;;;;;;;;;;21.60;100.00;100728.94;5115330;28;19929;-37
2023/07/28 10:29:09;;;;;;;;;;;;;;;21.64;100.00;100720.91;5114609;28;19908;-38
2023/07/28 10:31:34;;;;;;;;;;;;;;;21.61;100.00;100725.06;5115199;28;19957;-38
2023/07/28 10:34:00;;;;;;;;;;;;;;;21.53;100.00;100734.06;5115632;28;19931;-38
2023/07/28 10:36:25;;;;;;;;;;;;;;;21.47;100.00;100721.50;5115199;28;20335;-38
2023/07/28 10:39:00;;;;;;;;;;;;;;;21.43;100.00;100726.84;5114376;28;19953;-38
2023/07/28 10:41:25;;;;;;;;;;;;;;;21.42;100.00;100729.88;5115334;27;19911;-38
2023/07/28 10:43:51;;;;;;;;;;;;;;;21.45;100.00;100721.00;5114734;28;20407;-38
2023/07/28 10:46:18;;;;;;;;;;;;;;;21.55;100.00;100727.13;5114728;28;19915;-38
2023/07/28 10:48:47;;;;;;;;;;;;;;;21.78;100.00;100714.25;5114318;28;19907;-38
2023/07/28 10:51:20;;;;;;;;;;;;;;;22.02;100.00;100716.72;5114946;28;19968;-38
2023/07/28 10:53:46;;;;;;;;;;;;;;;22.16;100.00;100719.47;5114133;28;19911;-38
2023/07/28 10:56:12;;;;;;;;;;;;;;;22.30;100.00;100720.22;5114913;28;19915;-38
2023/07/28 10:58:37;;;;;;;;;;;;;;;22.32;100.00;100725.41;5115369;28;20231;-38
2023/07/28 11:01:02;;;;;;;;;;;;;;;22.35;100.00;100722.03;5114569;28;20351;-38
2023/07/28 11:03:28;;;;;;;;;;;;;;;22.39;100.00;100728.53;5114584;28;19994;-38
2023/07/28 11:05:54;;;;;;;;;;;;;;;22.42;100.00;100722.41;5114222;28;19907;-38
2023/07/28 11:08:19;;;;;;;;;;;;;;;22.56;100.00;100722.34;5115283;28;19908;-38
2023/07/28 11:10:45;;;;;;;;;;;;;;;22.69;100.00;100717.88;5114132;28;19939;-38
2023/07/28 11:13:11;;;;;;;;;;;;;;;22.82;100.00;100720.56;5114086;28;19907;-38
2023/07/28 11:15:37;;;;;;;;;;;;;;;22.94;100.00;100717.25;5115232;28;19907;-38
2023/07/28 11:18:02;;;;;;;;;;;;;;;22.99;100.00;100716.31;5114616;28;19914;-38
2023/07/28 11:20:28;;;;;;;;;;;;;;;23.10;100.00;100715.69;5114391;28;20248;-38
2023/07/28 11:23:00;;;;;;;;;;;;;;;23.35;100.00;100716.91;5115189;28;19912;-38
2023/07/28 11:25:27;;;;;;;;;;;;;;;23.69;100.00;100711.84;5114280;28;20248;-38
2023/07/28 11:27:52;;;;;;;;;;;;;;;23.94;100.00;100711.03;5115164;28;19999;-38
2023/07/28 11:30:18;;;;;;;;;;;;;;;24.17;100.00;100710.91;5113955;28;19939;-38
2023/07/28 11:32:45;;;;;;;;;;;;;;;24.23;100.00;100713.16;5114511;28;19907;-38
2023/07/28 11:35:11;;;;;;;;;;;;;;;24.31;100.00;100706.81;5114185;28;20312;-38
2023/07/28 11:37:37;;;;;;;;;;;;;;;24.38;100.00;100711.88;5113903;28;20398;-38
2023/07/28 11:40:06;;;;;;;;;;;;;;;24.16;100.00;100707.31;5114055;28;20083;-38
2023/07/28 11:42:33;;;;;;;;;;;;;;;24.13;100.00;100707.97;5114178;28;20378;-38
2023/07/28 11:44:59;;;;;;;;;;;;;;;24.10;100.00;100712.19;5114397;28;19915;-38
2023/07/28 11:47:24;;;;;;;;;;;;;;;24.08;100.00;100711.69;5114983;28;19911;-38
2023/07/28 11:49:51;;;;;;;;;;;;;;;24.10;100.00;100714.94;5113987;28;19908;-38